Down Up Stop Top
)

OHZ055
There are no active watches, warnings or advisories

Record high temperature 104.2°F Record low temperature -13.0°F Record high gust 50.9 mph Record high average 34.5 mph Record daily rain 3.21 in. Record low windchill -32.3°F Record high barometer 30.918 in. Record low barometer 29.140 in.
Daily high pressure 30.642 in. Daily low pressure 30.325 in. Daily low windchill 16.5°F Daily high heat index 42.4°F Daily high gust speed 10 mph E Daily high average speed 3 mph SW
Groveport, OH Weather
LAST READING AT TIME: 21:15 DATE: December 12 2019, time of next update: 21:30
Current Weatherovercast/Night Current Temperature 31.5°F (-0.3°C), Apparent temp 28.3°F
Maximum Temperature (since midnight)42.4°F at: 14:23 Minimum Temperature (since midnight)16.5°F at: 05:08
Average windspeed (ten minute)0.0 mph Wind Direction (ten minute)ESE (112°)
Windchill Temperature 31.5°F Maximum Gust (last hour)0.0 mph at: 21:00
Maximum Gust (since midnight)10.4 mph at: 12:52 Maximum 1 minute average (since midnight)3.5 mph at: 14:40
Rainfall (last hour)0.00 in. (0.0 mm) Rainfall (since midnight)0.00 in. (0.0 mm) ---
Rainfall This month 0.81 in. (20.6 mm) Rainfall To date this year 43.54 in. (1105.9 mm)
Maximum rain per minute (last hour)0.00 in/min Maximum rain per hour (last 6 hours)0.00 in/hour
Yesterdays rainfall 0.00 in DewPoint 25.1°F (Wet Bulb :29.3°F )
Humidity 77 %, Humidex 26.1°F Barometer corrected to msl30.325 in. (1026.9 hPa)
Pressure change -0.01 in. (last hour) Trend (last hour)STEADY
Pressure change (last 12 hours)-0.30 in Pressure change (last 6 hours)-0.13 in
Current Indoor Temp. 68.5°F
Current Indoor Hum. 46%

Status report of weather station: On line since March 2007


Latest Web Cam Image


Weather report/warning/Metars

Expires:201912131015;;261383
FPUS51 KBUF 122355
ZFPBUF

Zone Forecasts for Western New York
National Weather Service Buffalo NY
655 PM EST Thu Dec 12 2019


NYZ010-131015-
Northern Erie-
Including the city of Buffalo
655 PM EST Thu Dec 12 2019

.REST OF TONIGHT...Mostly cloudy early, then clearing. Near steady
temperatures ranging from the upper 20s inland to the lower 30s
along the Lake Erie shore. Southeast winds 5 to 10 mph, becoming
south 10 to 15 mph. 
.FRIDAY...Sunny in the morning, then becoming partly sunny. Highs in
the lower 40s. South winds 10 to 15 mph, diminishing to 5 to 10 mph.
.FRIDAY NIGHT...Rain showers. Near steady temperatures ranging from
the mid 30s inland to the upper 30s along the Lake Erie shore. Light
winds. Chance of rain 80 percent. 
.SATURDAY...Rain showers. Highs in the lower 40s. Northwest winds
10 mph or less. Chance of rain 80 percent. 
.SATURDAY NIGHT...Rain and snow showers likely. Lows in the lower
30s. West winds 10 to 20 mph with gusts up to 30 mph overnight.
Chance of precipitation 70 percent. 
.SUNDAY...Snow showers likely with a chance of rain showers. Highs
in the mid 30s. Chance of precipitation 70 percent. 
.SUNDAY NIGHT...Mostly cloudy. Lows in the mid 20s. 
.MONDAY...Mostly cloudy. Highs in the lower 30s. 
.MONDAY NIGHT...Cloudy with a 50 percent chance of snow. Lows in the
mid 20s. 
.TUESDAY...Cloudy with a 50 percent chance of snow and rain showers.
Highs in the mid 30s. 
.TUESDAY NIGHT...Mostly cloudy with a 40 percent chance of snow
showers. Lows in the lower 20s. 
.WEDNESDAY...Cloudy with a 40 percent chance of snow showers. Highs
in the upper 20s. 
.WEDNESDAY NIGHT...Mostly cloudy with a 30 percent chance of snow
showers. Lows 15 to 20. 
.THURSDAY...Mostly cloudy with a 30 percent chance of snow showers.
Highs in the upper 20s. 

$$


Expires:201912131545;;264444
FPUS51 KGYX 130133
ZFPGYX

Zone Forecasts for New Hampshire and western Maine
National Weather Service Gray ME
833 PM EST Thu Dec 12 2019


MEZ023-131545-
Coastal York-
Including the cities of Biddeford, Saco, Old Orchard Beach, 
and Kittery
833 PM EST Thu Dec 12 2019

.TONIGHT...Partly cloudy this evening, then becoming mostly cloudy.
Lows in the lower 20s. Light and variable winds. 
.FRIDAY...Mostly cloudy. A chance of drizzle in the afternoon. Highs
around 40. South winds around 10 mph with gusts up to 20 mph. 
.FRIDAY NIGHT...Drizzle likely with rain in the evening, then rain
after midnight. Not as cold with lows in the upper 30s. Southeast
winds around 10 mph, becoming northeast with gusts up to 20 mph
after midnight. Chance of rain near 100 percent. 
.SATURDAY...Rain. Highs in the mid 40s. Southeast winds 10 to
15 mph. Gusts up to 30 mph in the morning. Chance of rain near
100 percent. 
.SATURDAY NIGHT...Cloudy. Rain in the evening, then a chance of
showers after midnight. Lows in the upper 30s. South winds around
10 mph, becoming southwest with gusts up to 20 mph after midnight.
Chance of rain 80 percent. 
.SUNDAY...Partly sunny. Highs in the mid 40s. 
.SUNDAY NIGHT...Partly cloudy in the evening, then becoming mostly
clear. Lows in the lower 20s. 
.MONDAY...Mostly sunny. Highs in the lower 30s. 
.MONDAY NIGHT...Partly cloudy in the evening, then cloudy with a
chance of snow after midnight. Lows in the lower 20s. Chance of snow
50 percent. 
.TUESDAY...Snow likely. Highs in the mid 30s. Chance of snow
70 percent. 
.TUESDAY NIGHT...Partly cloudy. A chance of snow in the evening.
Lows in the lower 20s. Chance of snow 50 percent. 
.WEDNESDAY...Partly sunny. Highs in the mid 30s. 
.WEDNESDAY NIGHT...Partly cloudy in the evening, then clearing. Lows
10 to 15. 
.THURSDAY...Mostly sunny. Highs in the mid 20s. 

$$


PORT COLUMBUS INTERNATIONAL  AIRPORT, OH, United States (KCMH) 40-00N 82-53W 247M
Dec 12, 2019 - 08:51 PM EST / 2019.12.13 0151 UTC
Wind: from the NE (040 degrees) at 3 MPH (3 KT):0
Visibility: 10 mile(s):0
Sky conditions: overcast
Temperature: 33.1 F (0.6 C)
Dew Point: 21.0 F (-6.1 C)
Relative Humidity: 60%
Pressure (altimeter): 30.29 in. Hg (1025 hPa)
ob: KCMH 130151Z 04003KT 10SM OVC220 01/M06 A3029 RMK AO2 SLP268 T00061061
cycle: 2
BOSTON LOGAN INTERNATIONAL, MA, United States (KBOS) 42-22N 071-01W 54M
Dec 12, 2019 - 08:54 PM EST / 2019.12.13 0154 UTC
Wind: from the S (190 degrees) at 8 MPH (7 KT):0
Visibility: 10 mile(s):0
Sky conditions: mostly cloudy
Temperature: 30.0 F (-1.1 C)
Windchill: 23 F (-5 C):1
Dew Point: 17.1 F (-8.3 C)
Relative Humidity: 58%
Pressure (altimeter): 30.71 in. Hg (1039 hPa)
ob: KBOS 130154Z 19007KT 10SM FEW130 BKN230 M01/M08 A3071 RMK AO2 SLP398 T10111083
cycle: 2
GREATER BUFFALO INTERNATIONAL  AIRPORT , NY, United States (KBUF) 42-56N 078-44W 225M
Dec 12, 2019 - 08:54 PM EST / 2019.12.13 0154 UTC
Wind: Calm:0
Visibility: 10 mile(s):0
Sky conditions: overcast
Temperature: 28.9 F (-1.7 C)
Dew Point: 12.9 F (-10.6 C)
Relative Humidity: 50%
Pressure (altimeter): 30.32 in. Hg (1026 hPa)
ob: KBUF 130154Z 00000KT 10SM FEW190 OVC250 M02/M11 A3032 RMK AO2 SLP281 T10171106 
cycle: 2
HARTSFIELD-JACKSON ATLANTA, GA, United States (KATL) 33-39N 84-26W
Dec 12, 2019 - 08:52 PM EST / 2019.12.13 0152 UTC
Wind: from the E (080 degrees) at 16 MPH (14 KT):0
Visibility: 10 mile(s):0
Sky conditions: overcast
Precipitation last hour: 0.04 inches
Temperature: 41.0 F (5.0 C)
Dew Point: 36.0 F (2.2 C)
Relative Humidity: 82%
Pressure (altimeter): 30.33 in. Hg (1027 hPa)
ob: KATL 130152Z 08014KT 10SM OVC023 05/02 A3033 RMK AO2 RAE48 SLP277 P0004 T00500022
cycle: 2
GREATER ROCHESTER INTERNATIONAL , NY, United States (KROC) 43-07N 077-41W 178M
Dec 12, 2019 - 08:54 PM EST / 2019.12.13 0154 UTC
Wind: from the S (180 degrees) at 8 MPH (7 KT):0
Visibility: 10 mile(s):0
Sky conditions: mostly cloudy
Temperature: 30.9 F (-0.6 C)
Windchill: 23 F (-5 C):1
Dew Point: 10.9 F (-11.7 C)
Relative Humidity: 42%
Pressure (altimeter): 30.35 in. Hg (1027 hPa)
ob: KROC 130154Z 18007KT 10SM BKN200 M01/M12 A3035 RMK AO2 SLP291 T10061117 
cycle: 2
HYANNIS BARNSTABLE BOARDMN, MA, United States (KHYA) 41-40N 070-16W 22M
Dec 12, 2019 - 08:56 PM EST / 2019.12.13 0156 UTC
Wind: Calm:0
Visibility: 10 mile(s):0
Sky conditions: clear
Temperature: 21.0 F (-6.1 C)
Dew Point: 17.1 F (-8.3 C)
Relative Humidity: 84%
Pressure (altimeter): 30.7 in. Hg (1039 hPa)
ob: KHYA 130156Z 00000KT 10SM CLR M06/M08 A3070 RMK AO2 SLP399 T10611083
cycle: 2



The data is logged at two minute intervals, but there is data recorded every minute.

Use the RELOAD facility on your browser to retrieve the latest data.

Click here for a daily update of the averages/extremes to date for the month

Created by "Weather Display" software version 10.37S at this start time/date 20:42:29 12/12/2019